Time;durP1;ratioP1;P1;durP2;ratioP2;P2;SDS_P1;SDS_P2;PMS_P1;PMS_P2;Temp;Humidity;BMP_temperature;BMP_pressure;BME280_temperature;BME280_humidity;BME280_pressure;Samples;Min_cycle;Max_cycle;Signal;HPM_P1;HPM_P2
2024/01/01 00:01:43;;;;;;;74.22;37.42;;;;;;;;;;5022896;28;20045;-85
2024/01/01 00:04:11;;;;;;;72.45;37.15;;;;;;;;;;5024139;28;20628;-85
2024/01/01 00:06:41;;;;;;;86.65;44.33;;;;;;;;;;5019573;28;20049;-85
2024/01/01 00:09:10;;;;;;;90.45;45.40;;;;;;;;;;5019162;28;20525;-85
2024/01/01 00:11:38;;;;;;;84.85;46.53;;;;;;;;;;5019642;28;20057;-85
2024/01/01 00:14:09;;;;;;;95.18;48.00;;;;;;;;;;5024883;28;20060;-85
2024/01/01 00:16:37;;;;;;;89.68;47.03;;;;;;;;;;5022080;28;20046;-85
2024/01/01 00:19:06;;;;;;;91.65;46.20;;;;;;;;;;5019067;28;20050;-86
2024/01/01 00:21:34;;;;;;;75.93;38.95;;;;;;;;;;5020277;28;20042;-86
2024/01/01 00:24:04;;;;;;;68.20;35.90;;;;;;;;;;5021444;28;20107;-86
2024/01/01 00:26:32;;;;;;;57.13;30.13;;;;;;;;;;5020156;28;20422;-86
2024/01/01 00:29:03;;;;;;;38.08;21.90;;;;;;;;;;5020458;28;20096;-85
2024/01/01 00:31:32;;;;;;;32.53;18.48;;;;;;;;;;5021737;28;20058;-85
2024/01/01 00:34:01;;;;;;;35.35;17.48;;;;;;;;;;5020269;28;20482;-86
2024/01/01 00:36:29;;;;;;;30.20;16.17;;;;;;;;;;5020878;28;20058;-85
2024/01/01 00:38:58;;;;;;;22.70;12.10;;;;;;;;;;5024402;28;20073;-85
2024/01/01 00:41:28;;;;;;;29.10;14.10;;;;;;;;;;5018014;28;20170;-86
2024/01/01 00:43:56;;;;;;;24.00;11.63;;;;;;;;;;5017809;28;20519;-85
2024/01/01 00:46:24;;;;;;;25.63;12.23;;;;;;;;;;5024966;28;20045;-85
2024/01/01 00:48:53;;;;;;;21.65;12.40;;;;;;;;;;5019976;28;20046;-85
2024/01/01 00:51:21;;;;;;;22.33;12.10;;;;;;;;;;5020017;28;20128;-86
2024/01/01 00:53:51;;;;;;;20.80;11.10;;;;;;;;;;5019874;28;20057;-85
2024/01/01 00:56:19;;;;;;;19.90;10.98;;;;;;;;;;5019566;28;20053;-86
2024/01/01 00:58:49;;;;;;;20.85;10.80;;;;;;;;;;5024966;28;20046;-85
2024/01/01 01:01:17;;;;;;;17.42;8.77;;;;;;;;;;5018988;28;20052;-85
2024/01/01 01:03:46;;;;;;;20.10;10.05;;;;;;;;;;5024966;28;20053;-85
2024/01/01 01:06:14;;;;;;;17.02;7.80;;;;;;;;;;5022758;28;20242;-85
2024/01/01 01:08:52;;;;;;;15.48;7.90;;;;;;;;;;5017506;28;20577;-86
2024/01/01 01:11:20;;;;;;;14.20;7.13;;;;;;;;;;5024456;28;20073;-85
2024/01/01 01:13:50;;;;;;;12.32;6.20;;;;;;;;;;5020803;28;20470;-85
2024/01/01 01:16:18;;;;;;;9.35;5.70;;;;;;;;;;5024454;28;20131;-85
2024/01/01 01:18:47;;;;;;;7.38;4.25;;;;;;;;;;5020808;28;20357;-85
2024/01/01 01:21:15;;;;;;;7.45;4.30;;;;;;;;;;5023970;28;20148;-85
2024/01/01 01:23:44;;;;;;;6.88;4.03;;;;;;;;;;5024063;28;20568;-87
2024/01/01 01:26:13;;;;;;;6.22;3.50;;;;;;;;;;5022110;28;20096;-85
2024/01/01 01:28:41;;;;;;;5.95;3.85;;;;;;;;;;5024957;28;20482;-86
2024/01/01 01:31:11;;;;;;;6.18;3.40;;;;;;;;;;5020467;28;20087;-87
2024/01/01 01:33:39;;;;;;;5.47;3.10;;;;;;;;;;5017916;28;20054;-86
2024/01/01 01:36:09;;;;;;;5.28;2.85;;;;;;;;;;5016962;28;20052;-86
2024/01/01 01:38:38;;;;;;;9.00;3.05;;;;;;;;;;5018606;28;20052;-85
2024/01/01 01:41:07;;;;;;;4.88;3.10;;;;;;;;;;5019642;28;20052;-85
2024/01/01 01:43:35;;;;;;;5.53;2.70;;;;;;;;;;5017202;28;20108;-86
2024/01/01 01:46:04;;;;;;;4.72;2.67;;;;;;;;;;5024399;28;20045;-86
2024/01/01 01:48:34;;;;;;;6.13;3.17;;;;;;;;;;5022586;28;20103;-86
2024/01/01 01:51:03;;;;;;;6.82;3.30;;;;;;;;;;5024868;28;20128;-85
2024/01/01 01:53:32;;;;;;;3.97;2.13;;;;;;;;;;5024831;28;20480;-86
2024/01/01 01:56:03;;;;;;;5.90;2.47;;;;;;;;;;5015480;28;20053;-85
2024/01/01 01:58:33;;;;;;;4.50;2.67;;;;;;;;;;5020547;28;20391;-86
2024/01/01 02:01:02;;;;;;;3.58;1.92;;;;;;;;;;5024156;28;20088;-86
2024/01/01 02:03:30;;;;;;;5.13;2.35;;;;;;;;;;5025114;28;20108;-86
2024/01/01 02:06:00;;;;;;;5.13;2.80;;;;;;;;;;5020233;28;20052;-86
2024/01/01 02:08:30;;;;;;;4.18;1.90;;;;;;;;;;5034622;28;20050;-86
2024/01/01 02:10:58;;;;;;;3.65;2.03;;;;;;;;;;5015643;28;20103;-85
2024/01/01 02:13:28;;;;;;;4.47;2.17;;;;;;;;;;5016866;28;20106;-85
2024/01/01 02:15:57;;;;;;;4.28;2.50;;;;;;;;;;5019604;28;20045;-85
2024/01/01 02:18:26;;;;;;;2.58;1.95;;;;;;;;;;5018037;28;20064;-85
2024/01/01 02:20:56;;;;;;;3.22;1.63;;;;;;;;;;5021413;28;20054;-85
2024/01/01 02:23:26;;;;;;;5.35;2.10;;;;;;;;;;5017001;28;20149;-85
2024/01/01 02:25:54;;;;;;;1.90;1.50;;;;;;;;;;5016799;28;20073;-85
2024/01/01 02:28:23;;;;;;;2.45;1.55;;;;;;;;;;5017706;28;20168;-85
2024/01/01 02:30:51;;;;;;;4.68;2.10;;;;;;;;;;5017041;28;20050;-85
2024/01/01 02:33:19;;;;;;;6.00;1.95;;;;;;;;;;5023589;28;20042;-85
2024/01/01 02:35:48;;;;;;;2.25;1.70;;;;;;;;;;5022677;28;20461;-86
2024/01/01 02:38:16;;;;;;;2.80;1.63;;;;;;;;;;5019957;28;20197;-86
2024/01/01 02:40:46;;;;;;;2.20;1.63;;;;;;;;;;5016769;28;20060;-85
2024/01/01 02:43:15;;;;;;;2.38;1.50;;;;;;;;;;5016922;28;20081;-85
2024/01/01 02:45:43;;;;;;;1.75;1.38;;;;;;;;;;5016887;28;20089;-85
2024/01/01 02:48:11;;;;;;;2.17;1.40;;;;;;;;;;5021064;28;20100;-86
2024/01/01 02:50:40;;;;;;;3.20;1.70;;;;;;;;;;5023052;28;20041;-85
2024/01/01 02:53:09;;;;;;;4.85;2.05;;;;;;;;;;5021253;28;20388;-85
2024/01/01 02:55:37;;;;;;;1.75;1.38;;;;;;;;;;5017972;28;20066;-85
2024/01/01 02:58:07;;;;;;;2.20;1.55;;;;;;;;;;5018164;28;20057;-85
2024/01/01 03:00:36;;;;;;;2.85;1.83;;;;;;;;;;5020549;28;20065;-85
2024/01/01 03:03:04;;;;;;;2.80;1.67;;;;;;;;;;5022519;28;20058;-85
2024/01/01 03:05:33;;;;;;;2.83;1.40;;;;;;;;;;5018642;28;20133;-85
2024/01/01 03:08:01;;;;;;;1.73;1.50;;;;;;;;;;5018550;28;20103;-85
2024/01/01 03:10:30;;;;;;;3.13;1.27;;;;;;;;;;5022288;28;20050;-85
2024/01/01 03:12:59;;;;;;;3.08;1.65;;;;;;;;;;5015833;28;20056;-86
2024/01/01 03:15:28;;;;;;;2.83;1.35;;;;;;;;;;5015948;28;20073;-85
2024/01/01 03:17:57;;;;;;;3.65;1.27;;;;;;;;;;5018494;28;20089;-85
2024/01/01 03:20:30;;;;;;;2.30;1.23;;;;;;;;;;5022477;28;20057;-85
2024/01/01 03:22:59;;;;;;;2.22;1.48;;;;;;;;;;5022810;28;20111;-86
2024/01/01 03:25:27;;;;;;;2.45;1.38;;;;;;;;;;5016246;28;20469;-85
2024/01/01 03:27:56;;;;;;;2.20;1.13;;;;;;;;;;5018644;28;20065;-85
2024/01/01 03:30:25;;;;;;;2.50;1.05;;;;;;;;;;5022027;28;20514;-85
2024/01/01 03:32:54;;;;;;;1.85;1.27;;;;;;;;;;5016335;28;20048;-85
2024/01/01 03:35:23;;;;;;;2.38;1.15;;;;;;;;;;5015704;28;20073;-85
2024/01/01 03:37:51;;;;;;;2.85;1.10;;;;;;;;;;5016884;28;20056;-85
2024/01/01 03:40:20;;;;;;;5.80;1.75;;;;;;;;;;5022802;28;20132;-85
2024/01/01 03:42:48;;;;;;;2.92;1.55;;;;;;;;;;5015680;28;20054;-85
2024/01/01 03:45:17;;;;;;;3.33;1.38;;;;;;;;;;5019486;28;20107;-85
2024/01/01 03:47:45;;;;;;;2.22;1.35;;;;;;;;;;5019226;28;20065;-85
2024/01/01 03:50:16;;;;;;;3.15;1.30;;;;;;;;;;5015007;28;20060;-85
2024/01/01 03:52:44;;;;;;;1.90;1.15;;;;;;;;;;5022584;28;20152;-85
2024/01/01 03:55:15;;;;;;;3.60;1.17;;;;;;;;;;5017985;28;20418;-85
2024/01/01 03:57:44;;;;;;;2.40;1.42;;;;;;;;;;5020058;28;20530;-84
2024/01/01 04:00:13;;;;;;;1.98;1.10;;;;;;;;;;5017753;28;20041;-86
2024/01/01 04:02:41;;;;;;;2.35;1.10;;;;;;;;;;5018823;28;20107;-85
2024/01/01 04:05:10;;;;;;;2.35;1.27;;;;;;;;;;5015599;28;20048;-85
2024/01/01 04:07:40;;;;;;;3.47;1.40;;;;;;;;;;5017897;28;20186;-85
2024/01/01 04:10:10;;;;;;;1.58;1.13;;;;;;;;;;5015880;28;20056;-86
2024/01/01 04:12:39;;;;;;;1.98;1.33;;;;;;;;;;5021707;28;20085;-85
2024/01/01 04:15:07;;;;;;;1.60;1.23;;;;;;;;;;5021395;28;20579;-86
2024/01/01 04:17:36;;;;;;;2.80;1.70;;;;;;;;;;5019161;28;20125;-85
2024/01/01 04:20:10;;;;;;;2.20;1.45;;;;;;;;;;5017041;28;20053;-85
2024/01/01 04:22:41;;;;;;;4.18;1.50;;;;;;;;;;5016153;28;20049;-85
2024/01/01 04:25:10;;;;;;;2.00;1.35;;;;;;;;;;5016401;28;20052;-85
2024/01/01 04:27:38;;;;;;;2.33;1.58;;;;;;;;;;5015504;28;20041;-85
2024/01/01 04:30:07;;;;;;;5.65;1.77;;;;;;;;;;5015554;28;20057;-86
2024/01/01 04:32:36;;;;;;;2.03;1.27;;;;;;;;;;5017946;28;20530;-85
2024/01/01 04:35:05;;;;;;;1.30;1.10;;;;;;;;;;5024597;28;20042;-85
2024/01/01 04:37:33;;;;;;;1.50;1.35;;;;;;;;;;5021432;28;20073;-85
2024/01/01 04:40:04;;;;;;;2.42;1.35;;;;;;;;;;5024613;28;20053;-85
2024/01/01 04:42:33;;;;;;;2.63;1.13;;;;;;;;;;5023873;28;20490;-85
2024/01/01 04:45:01;;;;;;;2.58;1.48;;;;;;;;;;5025503;28;20104;-85
2024/01/01 04:47:30;;;;;;;1.92;1.10;;;;;;;;;;5025128;28;20080;-85
2024/01/01 04:49:58;;;;;;;1.35;1.13;;;;;;;;;;5018304;28;20049;-85
2024/01/01 04:52:27;;;;;;;1.98;1.17;;;;;;;;;;5023042;28;20520;-85
2024/01/01 04:54:55;;;;;;;1.67;1.20;;;;;;;;;;5023149;28;20045;-85
2024/01/01 04:57:26;;;;;;;2.15;1.10;;;;;;;;;;5023855;28;20360;-85
2024/01/01 04:59:54;;;;;;;2.10;1.10;;;;;;;;;;5018232;28;20056;-85
2024/01/01 05:02:23;;;;;;;2.47;1.42;;;;;;;;;;5022847;28;20054;-86
2024/01/01 05:04:51;;;;;;;3.65;1.40;;;;;;;;;;5023328;28;20137;-85
2024/01/01 05:07:20;;;;;;;2.17;1.13;;;;;;;;;;5021544;28;20133;-85
2024/01/01 05:09:48;;;;;;;2.72;1.20;;;;;;;;;;5026085;28;20112;-86
2024/01/01 05:12:17;;;;;;;2.25;1.13;;;;;;;;;;5023439;28;20050;-85
2024/01/01 05:14:47;;;;;;;1.67;1.20;;;;;;;;;;5024825;28;20050;-86
2024/01/01 05:17:16;;;;;;;1.50;1.15;;;;;;;;;;5022769;28;20080;-85
2024/01/01 05:19:44;;;;;;;5.18;1.35;;;;;;;;;;5024267;28;20479;-85
2024/01/01 05:22:13;;;;;;;2.38;1.10;;;;;;;;;;5021427;28;20045;-85
2024/01/01 05:24:41;;;;;;;2.58;1.17;;;;;;;;;;5018431;28;20061;-86
2024/01/01 05:27:09;;;;;;;1.50;1.02;;;;;;;;;;5019492;28;20045;-85
2024/01/01 05:29:41;;;;;;;2.58;1.00;;;;;;;;;;5017569;28;20487;-86
2024/01/01 05:32:11;;;;;;;2.85;1.13;;;;;;;;;;5018237;28;20050;-85
2024/01/01 05:34:41;;;;;;;2.67;1.10;;;;;;;;;;5018097;28;20112;-85
2024/01/01 05:37:09;;;;;;;1.27;1.00;;;;;;;;;;5017684;28;20056;-85
2024/01/01 05:39:38;;;;;;;3.10;1.10;;;;;;;;;;5022200;28;20107;-85
2024/01/01 05:42:06;;;;;;;1.55;0.90;;;;;;;;;;5023679;28;20045;-86
2024/01/01 05:44:35;;;;;;;1.48;1.05;;;;;;;;;;5022497;28;20380;-85
2024/01/01 05:47:03;;;;;;;1.25;1.10;;;;;;;;;;5016222;28;20052;-85
2024/01/01 05:49:33;;;;;;;3.20;1.45;;;;;;;;;;5024012;28;20057;-85
2024/01/01 05:52:02;;;;;;;1.73;1.20;;;;;;;;;;5016928;28;20058;-86
2024/01/01 05:54:30;;;;;;;3.15;1.00;;;;;;;;;;5019245;28;20319;-86
2024/01/01 05:56:59;;;;;;;1.77;1.10;;;;;;;;;;5019433;28;20054;-86
2024/01/01 05:59:28;;;;;;;1.58;1.05;;;;;;;;;;5024023;28;20410;-87
2024/01/01 06:01:56;;;;;;;2.83;1.00;;;;;;;;;;5021564;28;20053;-85
2024/01/01 06:04:24;;;;;;;1.38;0.90;;;;;;;;;;5023869;28;20550;-86
2024/01/01 06:06:54;;;;;;;1.63;1.15;;;;;;;;;;5018038;28;20053;-86
2024/01/01 06:09:23;;;;;;;3.17;0.90;;;;;;;;;;5023363;28;20041;-85
2024/01/01 06:11:51;;;;;;;2.08;1.10;;;;;;;;;;5023618;28;20124;-85
2024/01/01 06:14:19;;;;;;;0.68;0.68;;;;;;;;;;5019147;28;20490;-85
2024/01/01 06:16:48;;;;;;;2.38;1.00;;;;;;;;;;5017314;28;20046;-86
2024/01/01 06:19:16;;;;;;;2.55;1.13;;;;;;;;;;5019509;28;20564;-86
2024/01/01 06:21:45;;;;;;;1.83;1.08;;;;;;;;;;5016895;28;20317;-86
2024/01/01 06:24:14;;;;;;;1.67;0.98;;;;;;;;;;5017081;28;20053;-86
2024/01/01 06:26:43;;;;;;;1.10;1.00;;;;;;;;;;5021980;28;20053;-85
2024/01/01 06:29:11;;;;;;;2.10;1.30;;;;;;;;;;5018426;28;20128;-86
2024/01/01 06:31:39;;;;;;;1.75;0.90;;;;;;;;;;5018840;28;20049;-85
2024/01/01 06:34:08;;;;;;;1.90;1.20;;;;;;;;;;5016218;28;20073;-85
2024/01/01 06:36:36;;;;;;;2.40;1.00;;;;;;;;;;5020783;28;20503;-86
2024/01/01 06:39:05;;;;;;;1.40;0.93;;;;;;;;;;5020935;28;20552;-85
2024/01/01 06:41:34;;;;;;;1.63;0.80;;;;;;;;;;5024519;28;20037;-86
2024/01/01 06:44:03;;;;;;;2.97;0.90;;;;;;;;;;5022303;28;20407;-86
2024/01/01 06:46:31;;;;;;;1.55;0.80;;;;;;;;;;5022903;28;20049;-86
2024/01/01 06:49:00;;;;;;;1.73;0.98;;;;;;;;;;5017871;28;20163;-86
2024/01/01 06:51:28;;;;;;;1.45;1.05;;;;;;;;;;5023264;28;20092;-85
2024/01/01 06:53:56;;;;;;;2.42;1.30;;;;;;;;;;5022078;28;20499;-86
2024/01/01 06:56:25;;;;;;;2.15;1.10;;;;;;;;;;5021981;28;20045;-85
2024/01/01 06:58:55;;;;;;;1.80;1.08;;;;;;;;;;5018017;28;20057;-86
2024/01/01 07:01:23;;;;;;;2.63;1.25;;;;;;;;;;5016553;28;20057;-85
2024/01/01 07:03:52;;;;;;;3.00;1.00;;;;;;;;;;5020619;28;20149;-85
2024/01/01 07:06:20;;;;;;;1.92;1.30;;;;;;;;;;5015111;28;20080;-86
2024/01/01 07:08:49;;;;;;;1.35;1.00;;;;;;;;;;5020372;28;20045;-85
2024/01/01 07:11:17;;;;;;;2.30;0.80;;;;;;;;;;5016255;28;20104;-85
2024/01/01 07:13:45;;;;;;;2.15;1.10;;;;;;;;;;5016868;28;20088;-86
2024/01/01 07:16:15;;;;;;;1.30;0.95;;;;;;;;;;5022210;28;20124;-85
2024/01/01 07:18:44;;;;;;;1.13;0.77;;;;;;;;;;5017600;28;20042;-85
2024/01/01 07:21:12;;;;;;;1.52;0.95;;;;;;;;;;5018618;28;20133;-86
2024/01/01 07:23:40;;;;;;;1.70;0.90;;;;;;;;;;5015271;28;20046;-86
2024/01/01 07:26:09;;;;;;;1.50;1.00;;;;;;;;;;5017402;28;20076;-86
2024/01/01 07:28:37;;;;;;;1.10;1.00;;;;;;;;;;5021810;28;20037;-87
2024/01/01 07:31:05;;;;;;;1.13;0.80;;;;;;;;;;5016780;28;20056;-85
2024/01/01 07:33:35;;;;;;;1.98;0.90;;;;;;;;;;5016983;28;20112;-86
2024/01/01 07:36:04;;;;;;;2.08;1.00;;;;;;;;;;5021754;28;20053;-86
2024/01/01 07:38:33;;;;;;;1.20;0.90;;;;;;;;;;5017584;28;20077;-85
2024/01/01 07:41:01;;;;;;;0.80;0.70;;;;;;;;;;5018638;28;20104;-85
2024/01/01 07:43:29;;;;;;;0.93;0.82;;;;;;;;;;5023190;28;20065;-85
2024/01/01 07:45:58;;;;;;;1.25;0.70;;;;;;;;;;5015958;28;20078;-85
2024/01/01 07:48:26;;;;;;;2.67;0.95;;;;;;;;;;5018257;28;20133;-85
2024/01/01 07:50:56;;;;;;;1.85;0.80;;;;;;;;;;5016384;28;20050;-85
2024/01/01 07:53:25;;;;;;;3.60;1.17;;;;;;;;;;5022106;28;20053;-85
2024/01/01 07:55:53;;;;;;;0.85;0.80;;;;;;;;;;5021942;28;20049;-85
2024/01/01 07:58:23;;;;;;;2.95;0.90;;;;;;;;;;5019309;28;20049;-85
2024/01/01 08:00:51;;;;;;;2.28;0.80;;;;;;;;;;5017013;28;20046;-85
2024/01/01 08:03:21;;;;;;;1.23;0.95;;;;;;;;;;5015403;28;20478;-85
2024/01/01 08:05:49;;;;;;;2.40;0.90;;;;;;;;;;5014702;28;20137;-85
2024/01/01 08:08:19;;;;;;;3.53;1.15;;;;;;;;;;5019630;28;20041;-86
2024/01/01 08:10:48;;;;;;;1.02;0.63;;;;;;;;;;5022696;28;20053;-86
2024/01/01 08:13:16;;;;;;;1.65;0.88;;;;;;;;;;5025090;28;20051;-85
2024/01/01 08:15:44;;;;;;;1.15;0.90;;;;;;;;;;5026348;28;20081;-85
2024/01/01 08:18:13;;;;;;;1.33;1.05;;;;;;;;;;5024281;28;20042;-85
2024/01/01 08:20:41;;;;;;;1.77;1.25;;;;;;;;;;5026249;28;20053;-85
2024/01/01 08:23:10;;;;;;;1.15;1.05;;;;;;;;;;5025846;28;20054;-86
2024/01/01 08:25:40;;;;;;;5.20;1.20;;;;;;;;;;5018882;28;20050;-86
2024/01/01 08:28:08;;;;;;;2.67;1.00;;;;;;;;;;5024942;28;20600;-86
2024/01/01 08:30:38;;;;;;;6.68;1.13;;;;;;;;;;5024801;28;20077;-85
2024/01/01 08:33:07;;;;;;;1.45;0.80;;;;;;;;;;5019541;28;20053;-85
2024/01/01 08:35:35;;;;;;;1.52;0.88;;;;;;;;;;5023880;28;20095;-85
2024/01/01 08:38:03;;;;;;;1.67;0.80;;;;;;;;;;5019465;28;20306;-85
2024/01/01 08:40:32;;;;;;;1.13;0.82;;;;;;;;;;5018473;28;20061;-85
2024/01/01 08:43:02;;;;;;;3.90;1.17;;;;;;;;;;5018981;28;20506;-85
2024/01/01 08:45:30;;;;;;;1.15;0.80;;;;;;;;;;5023515;28;20049;-85
2024/01/01 08:47:59;;;;;;;2.72;1.08;;;;;;;;;;5020717;28;20090;-86
2024/01/01 08:50:27;;;;;;;2.85;1.00;;;;;;;;;;5025778;28;20049;-85
2024/01/01 08:52:56;;;;;;;2.33;1.05;;;;;;;;;;5019768;28;20061;-86
2024/01/01 08:55:24;;;;;;;3.85;1.10;;;;;;;;;;5021894;28;20052;-85
2024/01/01 08:57:53;;;;;;;3.10;1.30;;;;;;;;;;5018391;28;20053;-85
2024/01/01 09:00:22;;;;;;;2.28;1.00;;;;;;;;;;5017934;28;20529;-86
2024/01/01 09:02:51;;;;;;;2.78;0.90;;;;;;;;;;5022322;28;20454;-85
2024/01/01 09:05:19;;;;;;;1.70;1.23;;;;;;;;;;5025030;28;20050;-85
2024/01/01 09:07:48;;;;;;;1.13;0.80;;;;;;;;;;5019782;28;20057;-85
2024/01/01 09:10:17;;;;;;;2.10;0.80;;;;;;;;;;5020273;28;20048;-85
2024/01/01 09:12:46;;;;;;;2.25;0.80;;;;;;;;;;5024947;28;20056;-86
2024/01/01 09:15:16;;;;;;;2.67;1.33;;;;;;;;;;5024595;28;20045;-86
2024/01/01 09:17:46;;;;;;;2.42;1.10;;;;;;;;;;5023392;28;20057;-85
2024/01/01 09:20:14;;;;;;;0.80;0.68;;;;;;;;;;5022280;28;20398;-85
2024/01/01 09:22:43;;;;;;;2.10;1.15;;;;;;;;;;5018609;28;20133;-85
2024/01/01 09:25:11;;;;;;;3.40;1.10;;;;;;;;;;5020003;28;20045;-85
2024/01/01 09:27:43;;;;;;;2.15;0.95;;;;;;;;;;5018874;28;20582;-85
2024/01/01 09:30:12;;;;;;;2.85;0.90;;;;;;;;;;5024001;28;20045;-85
2024/01/01 09:32:40;;;;;;;3.35;1.00;;;;;;;;;;5023986;28;20060;-85
2024/01/01 09:35:10;;;;;;;1.77;1.08;;;;;;;;;;5024335;28;20050;-85
2024/01/01 09:37:39;;;;;;;1.38;1.05;;;;;;;;;;5019387;28;20077;-85
2024/01/01 09:40:08;;;;;;;1.17;0.88;;;;;;;;;;5017250;28;20050;-85
2024/01/01 09:42:36;;;;;;;4.05;1.27;;;;;;;;;;5019499;28;20054;-85
2024/01/01 09:45:05;;;;;;;2.78;1.00;;;;;;;;;;5021575;28;20050;-85
2024/01/01 09:47:33;;;;;;;0.73;0.70;;;;;;;;;;5024226;28;20042;-85
2024/01/01 09:50:02;;;;;;;1.75;0.80;;;;;;;;;;5022876;28;20052;-86
2024/01/01 09:52:32;;;;;;;2.55;1.02;;;;;;;;;;5023799;28;20080;-85
2024/01/01 09:55:00;;;;;;;1.63;0.88;;;;;;;;;;5021586;28;20053;-85
2024/01/01 09:57:29;;;;;;;1.27;0.70;;;;;;;;;;5016806;28;20507;-85
2024/01/01 09:59:59;;;;;;;1.98;0.77;;;;;;;;;;5020656;28;20120;-85
2024/01/01 10:02:28;;;;;;;0.80;0.80;;;;;;;;;;5018528;28;20513;-85
2024/01/01 10:05:12;;;;;;;1.27;0.75;;;;;;;;;;5016387;28;20471;-85
2024/01/01 10:07:42;;;;;;;2.65;1.23;;;;;;;;;;5019718;28;20057;-85
2024/01/01 10:10:12;;;;;;;1.48;0.73;;;;;;;;;;5018299;28;20100;-85
2024/01/01 10:12:45;;;;;;;1.00;0.77;;;;;;;;;;5017795;28;20463;-85
2024/01/01 10:15:14;;;;;;;0.98;0.57;;;;;;;;;;5016772;28;20042;-85
2024/01/01 10:17:42;;;;;;;1.52;0.93;;;;;;;;;;5018747;28;20115;-86
2024/01/01 10:20:12;;;;;;;3.08;1.15;;;;;;;;;;5021192;28;20235;-86
2024/01/01 10:22:42;;;;;;;2.33;0.60;;;;;;;;;;5022565;28;20100;-85
2024/01/01 10:25:11;;;;;;;3.63;0.85;;;;;;;;;;5023228;28;20053;-85
2024/01/01 10:27:42;;;;;;;1.77;0.70;;;;;;;;;;5023100;28;20046;-85
2024/01/01 10:30:10;;;;;;;0.50;0.50;;;;;;;;;;5017214;28;20050;-85
2024/01/01 10:32:40;;;;;;;1.60;0.60;;;;;;;;;;5022412;28;20053;-85
2024/01/01 10:35:10;;;;;;;2.00;0.57;;;;;;;;;;5017100;28;20125;-86
2024/01/01 10:37:42;;;;;;;1.20;0.77;;;;;;;;;;5016178;28;20053;-85
2024/01/01 10:40:14;;;;;;;1.85;0.70;;;;;;;;;;5022254;28;20059;-85
2024/01/01 10:42:48;;;;;;;1.02;0.80;;;;;;;;;;5022616;28;20053;-85
2024/01/01 10:45:16;;;;;;;1.13;0.90;;;;;;;;;;5019934;28;20054;-85
2024/01/01 10:47:46;;;;;;;3.05;1.00;;;;;;;;;;5016427;28;20046;-86
2024/01/01 10:50:21;;;;;;;4.22;1.02;;;;;;;;;;5022244;28;20049;-85
2024/01/01 10:52:58;;;;;;;2.38;0.70;;;;;;;;;;5019191;28;20135;-86
2024/01/01 10:55:34;;;;;;;2.80;0.90;;;;;;;;;;5016752;28;20056;-85
2024/01/01 10:58:22;;;;;;;1.85;0.68;;;;;;;;;;5019385;28;20054;-85
2024/01/01 11:00:54;;;;;;;1.67;0.93;;;;;;;;;;5017860;28;20061;-86
2024/01/01 11:03:22;;;;;;;2.28;0.70;;;;;;;;;;5018203;28;20053;-85
2024/01/01 11:05:51;;;;;;;0.55;0.40;;;;;;;;;;5016371;28;20111;-85
2024/01/01 11:08:27;;;;;;;1.75;0.65;;;;;;;;;;5021655;28;20078;-85
2024/01/01 11:10:57;;;;;;;2.33;0.60;;;;;;;;;;5018077;28;20054;-85
2024/01/01 11:13:44;;;;;;;1.00;0.70;;;;;;;;;;5019384;28;20251;-85
2024/01/01 11:16:12;;;;;;;1.13;0.70;;;;;;;;;;5015806;28;20144;-86
2024/01/01 11:18:43;;;;;;;2.28;0.50;;;;;;;;;;5019242;28;20037;-85
2024/01/01 11:21:27;;;;;;;1.02;0.57;;;;;;;;;;5015916;28;20058;-85
2024/01/01 11:23:56;;;;;;;2.13;0.73;;;;;;;;;;5020844;28;20045;-85
2024/01/01 11:26:47;;;;;;;2.60;0.80;;;;;;;;;;5022023;28;20501;-85
2024/01/01 11:29:27;;;;;;;2.90;0.73;;;;;;;;;;5019350;28;20152;-85
2024/01/01 11:32:02;;;;;;;0.85;0.65;;;;;;;;;;5016827;28;20056;-85
2024/01/01 11:34:30;;;;;;;0.70;0.70;;;;;;;;;;5022764;28;20088;-85
2024/01/01 11:37:20;;;;;;;0.80;0.68;;;;;;;;;;5021161;28;20072;-85
2024/01/01 11:39:58;;;;;;;3.63;0.80;;;;;;;;;;5020632;28;20119;-85
2024/01/01 11:42:27;;;;;;;0.60;0.60;;;;;;;;;;5024869;28;20053;-85
2024/01/01 11:45:11;;;;;;;0.95;0.80;;;;;;;;;;5023315;28;20514;-86
2024/01/01 11:47:39;;;;;;;0.60;0.60;;;;;;;;;;5021464;28;20549;-85
2024/01/01 11:50:09;;;;;;;0.65;0.60;;;;;;;;;;5023834;28;20128;-86
2024/01/01 11:52:38;;;;;;;2.60;0.80;;;;;;;;;;5024088;28;20056;-86
2024/01/01 11:55:07;;;;;;;2.08;0.80;;;;;;;;;;5019550;28;20049;-86
2024/01/01 11:57:37;;;;;;;0.60;0.60;;;;;;;;;;5025599;28;20080;-87
2024/01/01 12:00:06;;;;;;;1.10;1.00;;;;;;;;;;5025113;28;20554;-86
2024/01/01 12:02:35;;;;;;;1.83;0.73;;;;;;;;;;5025904;28;20121;-86
2024/01/01 12:05:03;;;;;;;1.15;0.68;;;;;;;;;;5019573;28;20514;-86
2024/01/01 12:07:33;;;;;;;1.77;0.90;;;;;;;;;;5018803;28;20063;-85
2024/01/01 12:10:03;;;;;;;2.03;0.90;;;;;;;;;;5023173;28;20065;-86
2024/01/01 12:12:31;;;;;;;3.63;0.88;;;;;;;;;;5023751;28;20061;-86
2024/01/01 12:15:12;;;;;;;1.45;0.75;;;;;;;;;;5019838;28;20053;-86
2024/01/01 12:17:41;;;;;;;1.50;0.80;;;;;;;;;;5023528;28;20048;-86
2024/01/01 12:20:11;;;;;;;1.10;0.75;;;;;;;;;;5025735;28;20049;-86
2024/01/01 12:22:40;;;;;;;4.72;1.20;;;;;;;;;;5024069;28;20046;-85
2024/01/01 12:25:14;;;;;;;2.47;1.23;;;;;;;;;;5025980;28;20454;-86
2024/01/01 12:27:43;;;;;;;1.30;0.85;;;;;;;;;;5026670;28;20322;-86
2024/01/01 12:30:27;;;;;;;1.48;0.63;;;;;;;;;;5019116;28;20530;-85
2024/01/01 12:32:55;;;;;;;3.17;1.05;;;;;;;;;;5022203;28;20049;-85
2024/01/01 12:35:24;;;;;;;1.17;0.70;;;;;;;;;;5023264;28;20104;-85
2024/01/01 12:37:54;;;;;;;4.55;1.10;;;;;;;;;;5023093;28;20042;-86
2024/01/01 12:40:22;;;;;;;3.17;0.88;;;;;;;;;;5020993;28;20095;-86
2024/01/01 12:42:51;;;;;;;0.82;0.60;;;;;;;;;;5020221;28;20050;-85
2024/01/01 12:45:19;;;;;;;2.83;0.82;;;;;;;;;;5024863;28;20037;-85
2024/01/01 12:47:50;;;;;;;4.85;1.45;;;;;;;;;;5017718;28;20050;-85
2024/01/01 12:50:19;;;;;;;1.25;0.90;;;;;;;;;;5022728;28;20053;-85
2024/01/01 12:52:48;;;;;;;1.70;0.98;;;;;;;;;;5024645;28;20360;-86
2024/01/01 12:55:16;;;;;;;5.07;1.08;;;;;;;;;;5021033;28;20085;-86
2024/01/01 12:57:45;;;;;;;0.82;0.80;;;;;;;;;;5019529;28;20061;-86
2024/01/01 13:00:13;;;;;;;3.17;0.73;;;;;;;;;;5019401;28;20049;-86
2024/01/01 13:02:42;;;;;;;3.90;0.90;;;;;;;;;;5025035;28;20177;-86
2024/01/01 13:05:11;;;;;;;0.98;0.68;;;;;;;;;;5018137;28;20493;-85
2024/01/01 13:07:40;;;;;;;1.02;0.70;;;;;;;;;;5018762;28;20045;-86
2024/01/01 13:10:09;;;;;;;4.78;1.02;;;;;;;;;;5024788;28;20099;-85
2024/01/01 13:12:37;;;;;;;1.63;0.75;;;;;;;;;;5024466;28;20054;-85
2024/01/01 13:15:07;;;;;;;1.75;0.70;;;;;;;;;;5024457;28;20053;-86
2024/01/01 13:17:35;;;;;;;1.60;0.80;;;;;;;;;;5022980;28;20058;-86
2024/01/01 13:20:08;;;;;;;3.17;0.88;;;;;;;;;;5023211;28;20527;-85
2024/01/01 13:22:38;;;;;;;1.10;0.75;;;;;;;;;;5023710;28;20413;-85
2024/01/01 13:25:06;;;;;;;3.30;0.75;;;;;;;;;;5018447;28;20108;-85
2024/01/01 13:27:34;;;;;;;1.85;0.88;;;;;;;;;;5017235;28;20105;-85
2024/01/01 13:30:03;;;;;;;2.03;0.80;;;;;;;;;;5017657;28;20088;-86
2024/01/01 13:32:32;;;;;;;1.80;0.95;;;;;;;;;;5020204;28;20046;-85
2024/01/01 13:35:00;;;;;;;2.58;0.90;;;;;;;;;;5023503;28;20054;-86
2024/01/01 13:37:29;;;;;;;1.50;0.80;;;;;;;;;;5017452;28;20050;-86
2024/01/01 13:39:59;;;;;;;0.85;0.70;;;;;;;;;;5022546;28;20218;-86
2024/01/01 13:42:27;;;;;;;4.55;1.10;;;;;;;;;;5017158;28;20099;-86
2024/01/01 13:44:55;;;;;;;1.30;0.73;;;;;;;;;;5020603;28;20054;-86
2024/01/01 13:47:24;;;;;;;2.90;0.98;;;;;;;;;;5020454;28;20042;-85
2024/01/01 13:49:52;;;;;;;2.00;0.80;;;;;;;;;;5022279;28;20041;-86
2024/01/01 13:52:21;;;;;;;1.27;0.73;;;;;;;;;;5021193;28;20388;-86
2024/01/01 13:54:49;;;;;;;1.88;0.65;;;;;;;;;;5019868;28;20144;-86
2024/01/01 13:57:19;;;;;;;1.38;0.80;;;;;;;;;;5021873;28;20081;-86
2024/01/01 13:59:47;;;;;;;4.88;0.82;;;;;;;;;;5018941;28;20053;-85
2024/01/01 14:02:16;;;;;;;1.83;0.80;;;;;;;;;;5017612;28;20119;-85
2024/01/01 14:04:44;;;;;;;3.45;0.98;;;;;;;;;;5017089;28;20109;-86
2024/01/01 14:07:14;;;;;;;0.68;0.60;;;;;;;;;;5019893;28;20046;-86
2024/01/01 14:09:42;;;;;;;2.30;0.82;;;;;;;;;;5019704;28;20458;-85
2024/01/01 14:12:10;;;;;;;3.08;0.75;;;;;;;;;;5017253;28;20062;-86
2024/01/01 14:14:43;;;;;;;2.88;0.85;;;;;;;;;;5019632;28;20142;-86
2024/01/01 14:17:12;;;;;;;1.13;0.80;;;;;;;;;;5017836;28;20058;-86
2024/01/01 14:19:40;;;;;;;1.10;0.80;;;;;;;;;;5019214;28;20107;-86
2024/01/01 14:22:09;;;;;;;0.82;0.60;;;;;;;;;;5019265;28;20569;-86
2024/01/01 14:24:37;;;;;;;3.33;0.82;;;;;;;;;;5017669;28;20380;-86
2024/01/01 14:27:09;;;;;;;0.98;0.63;;;;;;;;;;5018641;28;20065;-86
2024/01/01 14:29:38;;;;;;;3.30;1.13;;;;;;;;;;5019875;28;20099;-86
2024/01/01 14:32:07;;;;;;;1.00;0.70;;;;;;;;;;5021073;28;20054;-86
2024/01/01 14:34:37;;;;;;;4.57;0.88;;;;;;;;;;5016427;28;20137;-86
2024/01/01 14:37:07;;;;;;;1.45;0.75;;;;;;;;;;5017886;28;20443;-85
2024/01/01 14:39:35;;;;;;;1.95;1.00;;;;;;;;;;5017185;28;20057;-86
2024/01/01 14:42:04;;;;;;;3.78;0.70;;;;;;;;;;5019484;28;20065;-85
2024/01/01 14:44:33;;;;;;;1.45;0.82;;;;;;;;;;5020141;28;20479;-86
2024/01/01 14:47:03;;;;;;;0.82;0.73;;;;;;;;;;5023138;28;20045;-86
2024/01/01 14:49:32;;;;;;;0.98;0.70;;;;;;;;;;5023731;28;20107;-85
2024/01/01 14:52:02;;;;;;;0.77;0.73;;;;;;;;;;5023880;28;20084;-85
2024/01/01 14:54:30;;;;;;;1.45;0.65;;;;;;;;;;5020323;28;20396;-85